createdAt,value
2023-03-07T00:02:38.404Z,97441.81
2023-03-07T00:05:42.500Z,97442.31
2023-03-07T00:08:45.152Z,97434.53
2023-03-07T00:11:47.674Z,97441.34
2023-03-07T00:14:50.199Z,97447.50
2023-03-07T00:17:52.868Z,97450.66
2023-03-07T00:20:59.443Z,97439.59
2023-03-07T00:24:02.097Z,97442.56
2023-03-07T00:27:05.303Z,97440.28
2023-03-07T00:30:09.645Z,97440.81
2023-03-07T00:33:12.120Z,97448.00
2023-03-07T00:36:17.833Z,97435.34
2023-03-07T00:39:20.380Z,97429.63
2023-03-07T00:42:23.022Z,97431.09
2023-03-07T00:45:25.637Z,97430.63
2023-03-07T00:48:29.018Z,97421.09
2023-03-07T00:51:32.990Z,97413.16
2023-03-07T00:54:35.536Z,97399.66
2023-03-07T00:57:38.101Z,97406.81
2023-03-07T01:00:40.745Z,97404.56
2023-03-07T01:03:43.813Z,97397.91
2023-03-07T01:06:47.816Z,97395.53
2023-03-07T01:09:53.073Z,97391.84
2023-03-07T01:12:55.617Z,97390.25
2023-03-07T01:16:07.147Z,97383.13
2023-03-07T01:19:12.552Z,97382.66
2023-03-07T01:22:16.492Z,97382.38
2023-03-07T01:25:18.895Z,97390.25
2023-03-07T01:28:21.422Z,97390.09
2023-03-07T01:31:24.027Z,97383.38
2023-03-07T01:34:26.620Z,97393.59
2023-03-07T01:37:30.452Z,97388.19
2023-03-07T01:40:32.905Z,97380.88
2023-03-07T01:43:37.598Z,97372.75
2023-03-07T01:46:44.034Z,97373.25
2023-03-07T01:49:46.632Z,97372.91
2023-03-07T01:52:52.444Z,97364.47
2023-03-07T01:55:55.065Z,97368.94
2023-03-07T01:58:57.677Z,97364.97
2023-03-07T02:02:02.575Z,97364.47
2023-03-07T02:05:09.428Z,97357.91
2023-03-07T02:08:15.010Z,97355.03
2023-03-07T02:11:17.926Z,97358.06
2023-03-07T02:14:20.420Z,97356.69
2023-03-07T02:17:23.118Z,97353.19
2023-03-07T02:20:32.695Z,97346.78
2023-03-07T02:23:42.195Z,97357.47
2023-03-07T02:26:46.623Z,97356.63
2023-03-07T02:29:49.171Z,97349.13
2023-03-07T02:32:51.971Z,97349.22
2023-03-07T02:35:57.219Z,97341.47
2023-03-07T02:39:02.025Z,97346.28
2023-03-07T02:42:09.827Z,97339.25
2023-03-07T02:45:14.146Z,97336.16
2023-03-07T02:48:16.894Z,97324.28
2023-03-07T02:51:19.380Z,97327.63
2023-03-07T02:54:21.928Z,97322.88
2023-03-07T02:57:26.026Z,97317.72
2023-03-07T03:00:28.596Z,97316.81
2023-03-07T03:03:31.441Z,97315.22
2023-03-07T03:06:33.979Z,97312.13
2023-03-07T03:09:36.622Z,97314.84
2023-03-07T03:12:40.450Z,97307.50
2023-03-07T03:15:42.940Z,97305.44
2023-03-07T03:18:45.471Z,97304.66
2023-03-07T03:21:48.658Z,97294.53
2023-03-07T03:24:51.299Z,97305.81
2023-03-07T03:27:55.202Z,97306.97
2023-03-07T03:30:58.160Z,97300.41
2023-03-07T03:34:00.704Z,97300.81
2023-03-07T03:37:03.205Z,97307.03
2023-03-07T03:40:14.099Z,97301.28
2023-03-07T03:43:18.064Z,97297.78
2023-03-07T03:46:20.569Z,97296.00
2023-03-07T03:49:23.089Z,97287.44
2023-03-07T03:52:25.656Z,97289.84
2023-03-07T03:55:28.141Z,97285.19
2023-03-07T03:58:32.012Z,97275.16
2023-03-07T04:01:34.569Z,97280.22
2023-03-07T04:04:37.257Z,97270.13
2023-03-07T04:07:40.220Z,97277.75
2023-03-07T04:10:43.781Z,97271.19
2023-03-07T04:13:47.656Z,97265.53
2023-03-07T04:16:50.336Z,97272.50
2023-03-07T04:19:53.023Z,97264.53
2023-03-07T04:22:55.555Z,97262.69
2023-03-07T04:25:59.391Z,97260.44
2023-03-07T04:29:04.226Z,97255.69
2023-03-07T04:32:07.081Z,97270.16
2023-03-07T04:35:10.467Z,97267.50
2023-03-07T04:38:13.106Z,97259.91
2023-03-07T04:41:17.559Z,97261.38
2023-03-07T04:44:21.810Z,97262.81
2023-03-07T04:47:24.642Z,97253.75
2023-03-07T04:50:27.200Z,97255.84
2023-03-07T04:53:29.902Z,97258.72
2023-03-07T04:56:32.537Z,97254.91
2023-03-07T04:59:39.268Z,97255.50
2023-03-07T05:02:41.739Z,97249.50
2023-03-07T05:05:44.345Z,97246.75
2023-03-07T05:08:46.981Z,97245.16
2023-03-07T05:11:49.624Z,97244.56
2023-03-07T05:15:01.466Z,97240.38
2023-03-07T05:18:04.200Z,97240.53
2023-03-07T05:21:09.413Z,97238.16
2023-03-07T05:24:12.091Z,97239.63
2023-03-07T05:27:16.366Z,97230.41
2023-03-07T05:30:22.565Z,97225.00
2023-03-07T05:33:25.513Z,97224.84
2023-03-07T05:36:28.202Z,97228.66
2023-03-07T05:39:30.873Z,97240.59
2023-03-07T05:42:33.429Z,97240.41
2023-03-07T05:45:37.508Z,97232.94
2023-03-07T05:48:40.025Z,97232.75
2023-03-07T05:51:42.600Z,97222.94
2023-03-07T05:54:45.133Z,97231.97
2023-03-07T05:57:47.661Z,97225.13
2023-03-07T06:00:51.564Z,97224.28
2023-03-07T06:03:53.914Z,97222.41
2023-03-07T06:06:56.417Z,97214.13
2023-03-07T06:09:59.165Z,97214.78
2023-03-07T06:13:01.759Z,97214.03
2023-03-07T06:16:06.135Z,97214.97
2023-03-07T06:19:08.905Z,97203.50
2023-03-07T06:22:11.359Z,97197.94
2023-03-07T06:25:15.459Z,97197.75
2023-03-07T06:28:18.012Z,97204.63
2023-03-07T06:31:22.666Z,97202.38
2023-03-07T06:34:25.333Z,97196.38
2023-03-07T06:37:28.129Z,97193.34
2023-03-07T06:40:30.881Z,97203.56
2023-03-07T06:43:33.774Z,97202.59
2023-03-07T06:46:37.759Z,97193.84
2023-03-07T06:49:40.517Z,97194.94
2023-03-07T06:52:43.115Z,97205.59
2023-03-07T06:55:49.532Z,97198.47
2023-03-07T06:58:52.339Z,97203.69
2023-03-07T07:01:56.350Z,97213.72
2023-03-07T07:05:01.256Z,97203.19
2023-03-07T07:08:04.233Z,97203.34
2023-03-07T07:11:06.978Z,97205.09
2023-03-07T07:14:09.673Z,97211.16
2023-03-07T07:17:13.686Z,97207.75
2023-03-07T07:20:16.443Z,97205.38
2023-03-07T07:23:20.660Z,97198.72
2023-03-07T07:26:24.350Z,97205.97
2023-03-07T07:29:27.193Z,97206.00
2023-03-07T07:32:31.433Z,97209.66
2023-03-07T07:35:34.262Z,97216.81
2023-03-07T07:38:37.049Z,97218.66
2023-03-07T07:41:39.726Z,97213.44
2023-03-07T07:44:42.395Z,97210.69
2023-03-07T07:47:49.020Z,97213.50
2023-03-07T07:50:51.641Z,97209.63
2023-03-07T07:53:54.190Z,97200.28
2023-03-07T07:56:57.923Z,97201.72
2023-03-07T08:00:00.381Z,97210.97
2023-03-07T08:03:04.577Z,97206.84
2023-03-07T08:06:07.344Z,97205.72
2023-03-07T08:09:09.903Z,97198.66
2023-03-07T08:12:13.201Z,97197.38
2023-03-07T08:15:17.040Z,97195.91
2023-03-07T08:18:22.079Z,97185.81
2023-03-07T08:21:25.143Z,97200.03
2023-03-07T08:24:39.951Z,97202.56
2023-03-07T08:27:43.423Z,97197.03
2023-03-07T08:30:46.030Z,97186.22
2023-03-07T08:33:50.617Z,97189.84
2023-03-07T08:36:54.285Z,97193.19
2023-03-07T08:39:56.706Z,97190.41
2023-03-07T08:42:59.512Z,97191.84
2023-03-07T08:46:02.186Z,97178.81
2023-03-07T08:49:06.307Z,97175.47
2023-03-07T08:52:08.876Z,97181.09
2023-03-07T08:55:11.437Z,97178.56
2023-03-07T08:58:13.967Z,97172.28
2023-03-07T09:01:16.492Z,97175.69
2023-03-07T09:04:20.461Z,97172.63
2023-03-07T09:07:23.128Z,97175.88
2023-03-07T09:10:27.350Z,97166.38
2023-03-07T09:13:29.975Z,97167.94
2023-03-07T09:16:32.744Z,97175.09
2023-03-07T09:19:36.646Z,97165.00
2023-03-07T09:22:39.639Z,97164.06
2023-03-07T09:25:42.169Z,97160.59
2023-03-07T09:28:44.936Z,97148.34
2023-03-07T09:31:47.602Z,97156.97
2023-03-07T09:34:53.142Z,97167.78
2023-03-07T09:37:55.689Z,97163.34
2023-03-07T09:41:03.096Z,97167.47
2023-03-07T09:44:12.042Z,97173.19
2023-03-07T09:47:29.956Z,97177.81
2023-03-07T09:50:41.183Z,97168.47
2023-03-07T09:53:45.043Z,97170.84
2023-03-07T09:56:48.875Z,97176.41
2023-03-07T09:59:53.915Z,97157.06
2023-03-07T10:02:59.725Z,97144.34
2023-03-07T10:06:10.202Z,97159.69
2023-03-07T10:09:16.877Z,97158.00
2023-03-07T10:12:38.116Z,97158.59
2023-03-07T10:15:46.575Z,97153.75
2023-03-07T10:19:00.789Z,97145.16
2023-03-07T10:22:11.135Z,97156.56
2023-03-07T10:25:20.244Z,97148.41
2023-03-07T10:28:25.382Z,97140.13
2023-03-07T10:31:33.185Z,97144.44
2023-03-07T10:34:37.982Z,97131.44
2023-03-07T10:37:50.164Z,97138.56
2023-03-07T10:40:56.174Z,97129.31
2023-03-07T10:43:58.934Z,97131.41
2023-03-07T10:47:01.768Z,97126.00
2023-03-07T10:50:15.565Z,97122.88
2023-03-07T10:53:26.344Z,97123.69
2023-03-07T10:56:28.904Z,97112.78
2023-03-07T10:59:31.496Z,97126.41
2023-03-07T11:02:37.049Z,97115.16
2023-03-07T11:05:40.698Z,97123.69
2023-03-07T11:08:46.216Z,97110.50
2023-03-07T11:11:57.649Z,97122.84
2023-03-07T11:15:12.184Z,97115.09
2023-03-07T11:18:27.513Z,97104.84
2023-03-07T11:21:32.170Z,97098.59
2023-03-07T11:24:40.547Z,97102.69
2023-03-07T11:27:49.224Z,97098.31
2023-03-07T11:30:53.538Z,97097.69
2023-03-07T11:34:00.897Z,97095.19
2023-03-07T11:37:16.660Z,97093.13
2023-03-07T11:40:23.910Z,97094.25
2023-03-07T11:43:41.692Z,97094.50
2023-03-07T11:47:08.132Z,97086.78
2023-03-07T11:50:23.292Z,97089.81
2023-03-07T11:53:37.613Z,97100.28
2023-03-07T11:56:45.740Z,97100.28
2023-03-07T12:00:05.048Z,97107.84
2023-03-07T12:03:21.619Z,97094.84
2023-03-07T12:06:33.222Z,97084.72
2023-03-07T12:09:43.324Z,97084.88
2023-03-07T12:12:56.700Z,97078.03
2023-03-07T12:16:06.471Z,97070.38
2023-03-07T12:19:32.752Z,97072.34
2023-03-07T12:22:42.499Z,97073.16
2023-03-07T12:25:47.513Z,97063.97
2023-03-07T12:28:54.421Z,97066.69
2023-03-07T12:32:00.337Z,97059.31
2023-03-07T12:35:08.140Z,97039.94
2023-03-07T12:38:14.167Z,97034.44
2023-03-07T12:41:25.528Z,97019.38
2023-03-07T12:44:35.753Z,97021.63
2023-03-07T12:47:51.401Z,97005.41
2023-03-07T12:50:58.057Z,97005.38
2023-03-07T12:54:05.067Z,97011.63
2023-03-07T12:57:12.534Z,96998.75
2023-03-07T13:00:18.982Z,96986.28
2023-03-07T13:03:35.681Z,96981.25
2023-03-07T13:06:39.805Z,96984.44
2023-03-07T13:09:44.078Z,96979.34
2023-03-07T13:12:46.700Z,96980.72
2023-03-07T13:16:07.074Z,96981.28
2023-03-07T13:19:44.626Z,96972.50
2023-03-07T13:23:26.515Z,96964.16
2023-03-07T13:26:29.070Z,96962.47
2023-03-07T13:30:06.692Z,96970.81
2023-03-07T13:33:27.718Z,96969.31
2023-03-07T13:36:35.833Z,96971.50
2023-03-07T13:39:39.047Z,96971.94
2023-03-07T13:42:48.364Z,96967.19
2023-03-07T13:45:52.914Z,96967.69
2023-03-07T13:49:03.839Z,96964.78
2023-03-07T13:52:40.576Z,96954.94
2023-03-07T13:55:47.030Z,96971.31
2023-03-07T13:58:53.322Z,96963.69
2023-03-07T14:01:58.767Z,96973.81
2023-03-07T14:05:03.181Z,96981.25
2023-03-07T14:08:06.745Z,96983.72
2023-03-07T14:11:17.807Z,96980.16
2023-03-07T14:14:55.801Z,96996.06
2023-03-07T14:18:12.600Z,96969.03
2023-03-07T14:21:25.444Z,96979.38
2023-03-07T14:24:37.140Z,96984.31
2023-03-07T14:27:51.800Z,96981.06
2023-03-07T14:30:56.755Z,96992.88
2023-03-07T14:33:59.584Z,96994.69
2023-03-07T14:37:06.576Z,96992.84
2023-03-07T14:40:20.798Z,96992.69
2023-03-07T14:43:32.558Z,96982.91
2023-03-07T14:46:40.253Z,97000.97
2023-03-07T14:49:47.143Z,96994.19
2023-03-07T14:52:59.409Z,96968.78
2023-03-07T14:56:02.318Z,96977.16
2023-03-07T14:59:05.781Z,96962.22
2023-03-07T15:02:17.663Z,96966.63
2023-03-07T15:05:22.350Z,96954.03
2023-03-07T15:08:29.631Z,96946.16
2023-03-07T15:11:35.734Z,96947.56
2023-03-07T15:14:41.670Z,96957.59
2023-03-07T15:17:44.653Z,96960.81
2023-03-07T15:20:47.695Z,96968.72
2023-03-07T15:23:56.411Z,96949.78
2023-03-07T15:26:59.971Z,96954.69
2023-03-07T15:30:02.475Z,96947.88
2023-03-07T15:33:15.555Z,96943.56
2023-03-07T15:36:26.806Z,96950.00
2023-03-07T15:39:34.483Z,96955.94
2023-03-07T15:42:49.422Z,96957.06
2023-03-07T15:46:01.729Z,96959.00
2023-03-07T15:49:04.714Z,96961.03
2023-03-07T15:52:07.716Z,96962.59
2023-03-07T15:55:18.737Z,96967.03
2023-03-07T15:58:22.785Z,96956.69
2023-03-07T16:01:26.894Z,96951.75
2023-03-07T16:04:37.323Z,96951.19
2023-03-07T16:07:39.872Z,96948.34
2023-03-07T16:10:47.890Z,96946.00
2023-03-07T16:13:50.864Z,96952.94
2023-03-07T16:16:54.623Z,96962.19
2023-03-07T16:19:57.346Z,96967.31
2023-03-07T16:22:59.871Z,96966.59
2023-03-07T16:26:05.971Z,96976.25
2023-03-07T16:29:12.677Z,96974.03
2023-03-07T16:32:17.430Z,96975.03
2023-03-07T16:35:21.377Z,96980.56
2023-03-07T16:38:23.865Z,96981.25
2023-03-07T16:41:27.836Z,96985.03
2023-03-07T16:44:30.664Z,96976.50
2023-03-07T16:47:33.161Z,96975.59
2023-03-07T16:50:35.707Z,96980.66
2023-03-07T16:53:38.392Z,96992.06
2023-03-07T16:56:45.133Z,96992.22
2023-03-07T16:59:48.362Z,97000.56
2023-03-07T17:02:52.644Z,96996.19
2023-03-07T17:05:55.203Z,96999.69
2023-03-07T17:08:57.822Z,97000.69
2023-03-07T17:12:04.152Z,97002.63
2023-03-07T17:15:08.192Z,97002.72
2023-03-07T17:18:11.783Z,97004.25
2023-03-07T17:21:15.395Z,97007.88
2023-03-07T17:24:17.910Z,97005.22
2023-03-07T17:27:21.858Z,97011.63
2023-03-07T17:30:26.092Z,97021.47
2023-03-07T17:33:28.705Z,97018.13
2023-03-07T17:36:32.353Z,97025.66
2023-03-07T17:39:35.556Z,97024.22
2023-03-07T17:42:40.415Z,97025.94
2023-03-07T17:45:42.945Z,97031.75
2023-03-07T17:48:45.471Z,97038.31
2023-03-07T17:51:48.768Z,97045.56
2023-03-07T17:54:51.560Z,97040.53
2023-03-07T17:57:55.470Z,97045.94
2023-03-07T18:00:57.955Z,97064.28
2023-03-07T18:04:00.873Z,97060.34
2023-03-07T18:07:04.556Z,97068.47
2023-03-07T18:10:08.999Z,97074.16
2023-03-07T18:13:14.862Z,97070.47
2023-03-07T18:16:17.496Z,97068.44
2023-03-07T18:19:26.427Z,97076.81
2023-03-07T18:22:29.721Z,97078.69
2023-03-07T18:25:32.249Z,97079.50
2023-03-07T18:28:37.557Z,97075.25
2023-03-07T18:31:40.075Z,97082.00
2023-03-07T18:34:42.616Z,97070.47
2023-03-07T18:37:45.646Z,97072.59
2023-03-07T18:40:48.478Z,97065.66
2023-03-07T18:43:53.893Z,97059.25
2023-03-07T18:46:56.520Z,97059.06
2023-03-07T18:49:59.102Z,97061.84
2023-03-07T18:53:01.664Z,97059.84
2023-03-07T18:56:04.828Z,97065.09
2023-03-07T18:59:08.659Z,97077.72
2023-03-07T19:02:11.286Z,97077.38
2023-03-07T19:05:14.044Z,97076.16
2023-03-07T19:08:17.640Z,97078.97
2023-03-07T19:11:21.074Z,97081.09
2023-03-07T19:14:26.280Z,97081.81
2023-03-07T19:17:29.138Z,97083.75
2023-03-07T19:20:31.610Z,97080.28
2023-03-07T19:23:34.114Z,97076.78
2023-03-07T19:26:36.670Z,97076.94
2023-03-07T19:29:40.574Z,97065.94
2023-03-07T19:32:43.453Z,97079.41
2023-03-07T19:35:45.984Z,97077.97
2023-03-07T19:38:49.149Z,97091.78
2023-03-07T19:41:51.631Z,97094.69
2023-03-07T19:44:56.055Z,97098.22
2023-03-07T19:47:58.743Z,97112.84
2023-03-07T19:51:01.667Z,97098.28
2023-03-07T19:54:04.469Z,97105.69
2023-03-07T19:57:09.132Z,97116.41
2023-03-07T20:00:14.780Z,97117.84
2023-03-07T20:03:18.832Z,97121.03
2023-03-07T20:06:22.799Z,97119.31
2023-03-07T20:09:25.488Z,97125.09
2023-03-07T20:12:27.994Z,97125.19
2023-03-07T20:15:32.338Z,97141.53
2023-03-07T20:18:35.519Z,97135.16
2023-03-07T20:21:38.074Z,97130.88
2023-03-07T20:24:40.609Z,97116.53
2023-03-07T20:27:43.075Z,97121.59
2023-03-07T20:30:48.142Z,97113.94
2023-03-07T20:33:51.057Z,97117.56
2023-03-07T20:36:54.708Z,97109.88
2023-03-07T20:39:57.213Z,97108.81
2023-03-07T20:43:00.910Z,97108.66
2023-03-07T20:46:05.461Z,97134.88
2023-03-07T20:49:08.456Z,97131.28
2023-03-07T20:52:11.046Z,97132.00
2023-03-07T20:55:13.630Z,97139.25
2023-03-07T20:58:16.393Z,97145.88
2023-03-07T21:01:21.011Z,97155.91
2023-03-07T21:04:23.622Z,97152.88
2023-03-07T21:07:26.241Z,97154.88
2023-03-07T21:10:28.849Z,97150.88
2023-03-07T21:13:31.792Z,97135.69
2023-03-07T21:16:35.767Z,97146.28
2023-03-07T21:19:38.564Z,97145.22
2023-03-07T21:22:41.103Z,97135.69
2023-03-07T21:25:45.027Z,97144.22
2023-03-07T21:28:47.557Z,97153.16
2023-03-07T21:31:51.682Z,97154.59
2023-03-07T21:34:54.293Z,97153.81
2023-03-07T21:37:56.775Z,97162.00
2023-03-07T21:40:59.429Z,97173.38
2023-03-07T21:44:02.257Z,97176.09
2023-03-07T21:47:06.252Z,97171.16
2023-03-07T21:50:10.257Z,97175.47
2023-03-07T21:53:12.910Z,97184.66
2023-03-07T21:56:17.623Z,97186.91
2023-03-07T21:59:20.140Z,97203.97
2023-03-07T22:02:24.142Z,97188.72
2023-03-07T22:05:26.777Z,97203.25
2023-03-07T22:08:29.265Z,97211.34
2023-03-07T22:11:31.843Z,97212.22
2023-03-07T22:14:34.503Z,97218.44
2023-03-07T22:17:38.332Z,97210.03
2023-03-07T22:20:40.697Z,97214.09
2023-03-07T22:23:43.518Z,97210.97
2023-03-07T22:26:45.963Z,97220.66
2023-03-07T22:29:48.679Z,97214.81
2023-03-07T22:32:52.528Z,97225.53
2023-03-07T22:35:56.270Z,97218.53
2023-03-07T22:38:58.880Z,97225.97
2023-03-07T22:42:01.797Z,97213.72
2023-03-07T22:45:04.951Z,97212.81
2023-03-07T22:48:08.755Z,97218.13
2023-03-07T22:51:14.273Z,97214.75
2023-03-07T22:54:16.811Z,97207.88
2023-03-07T22:57:19.291Z,97203.47
2023-03-07T23:00:22.345Z,97207.88
2023-03-07T23:03:26.664Z,97204.13
2023-03-07T23:06:30.889Z,97204.88
2023-03-07T23:09:33.918Z,97201.75
2023-03-07T23:12:36.412Z,97196.97
2023-03-07T23:15:40.776Z,97203.97
2023-03-07T23:18:45.750Z,97210.50
2023-03-07T23:21:48.297Z,97211.81
2023-03-07T23:24:50.848Z,97213.06
2023-03-07T23:27:53.448Z,97215.16
2023-03-07T23:30:56.203Z,97221.38
2023-03-07T23:34:01.785Z,97225.03
2023-03-07T23:37:04.313Z,97221.69
2023-03-07T23:40:08.248Z,97222.16
2023-03-07T23:43:11.192Z,97220.72
2023-03-07T23:46:14.754Z,97233.91
2023-03-07T23:49:18.648Z,97239.97
2023-03-07T23:52:21.092Z,97241.88
2023-03-07T23:55:23.711Z,97231.22
2023-03-07T23:58:26.614Z,97229.16
